Time;durP1;ratioP1;P1;durP2;ratioP2;P2;SDS_P1;SDS_P2;PMS_P1;PMS_P2;Temp;Humidity;BMP_temperature;BMP_pressure;BME280_temperature;BME280_humidity;BME280_pressure;Samples;Min_cycle;Max_cycle;Signal;HPM_P1;HPM_P2
2019/11/09 00:00:28;;;;;;;11.15;8.049999;;;;;;;4.09;98.18457;94254.46;;;;
2019/11/09 00:01:29;;;;;;;11.15;8.049999;;;;;;;4.09;98.18457;94254.46;;;;
2019/11/09 00:02:30;;;;;;;11.15;8.049999;;;;;;;4.09;98.18457;94254.46;;;;
2019/11/09 00:03:32;;;;;;;13.1;8.950001;;;;;;;4.18;98.07813;94240.7;;;;
2019/11/09 00:04:33;;;;;;;13.1;8.950001;;;;;;;4.18;98.07813;94240.7;;;;
2019/11/09 00:05:34;;;;;;;13.1;8.950001;;;;;;;4.18;98.07813;94240.7;;;;
2019/11/09 00:06:35;;;;;;;13.1;8.950001;;;;;;;4.18;98.07813;94240.7;;;;
2019/11/09 00:07:36;;;;;;;13.1;8.950001;;;;;;;4.18;98.07813;94240.7;;;;
2019/11/09 00:08:37;;;;;;;13.1;8.950001;;;;;;;4.18;98.07813;94240.7;;;;
2019/11/09 00:09:38;;;;;;;13.1;8.950001;;;;;;;4.18;98.07813;94240.7;;;;
2019/11/09 00:10:40;;;;;;;13.1;8.950001;;;;;;;4.18;98.07813;94240.7;;;;
2019/11/09 00:11:41;;;;;;;13.1;8.950001;;;;;;;4.18;98.07813;94240.7;;;;
2019/11/09 00:12:42;;;;;;;13.1;8.950001;;;;;;;4.18;98.07813;94240.7;;;;
2019/11/09 00:13:43;;;;;;;13.1;8.950001;;;;;;;4.18;98.07813;94240.7;;;;
2019/11/09 00:14:44;;;;;;;11.35;8.949999;;;;;;;4.32;98.18359;94232.4;;;;
2019/11/09 00:15:45;;;;;;;11.35;8.949999;;;;;;;4.32;98.18359;94232.4;;;;
2019/11/09 00:16:46;;;;;;;11.35;8.949999;;;;;;;4.32;98.18359;94232.4;;;;
2019/11/09 00:17:47;;;;;;;11.35;8.949999;;;;;;;4.32;98.18359;94232.4;;;;
2019/11/09 00:18:49;;;;;;;11.35;8.949999;;;;;;;4.32;98.18359;94232.4;;;;
2019/11/09 00:19:50;;;;;;;11.35;8.949999;;;;;;;4.32;98.18359;94232.4;;;;
2019/11/09 00:20:51;;;;;;;11.35;8.949999;;;;;;;4.32;98.18359;94232.4;;;;
2019/11/09 00:21:52;;;;;;;11.35;8.949999;;;;;;;4.32;98.18359;94232.4;;;;
2019/11/09 00:22:53;;;;;;;11.35;8.949999;;;;;;;4.32;98.18359;94232.4;;;;
2019/11/09 00:23:54;;;;;;;11.35;8.949999;;;;;;;4.32;98.18359;94232.4;;;;
2019/11/09 00:24:55;;;;;;;12.2;9.549999;;;;;;;4.39;98.0625;94254.14;;;;
2019/11/09 00:25:56;;;;;;;12.2;9.549999;;;;;;;4.39;98.0625;94254.14;;;;
2019/11/09 00:26:58;;;;;;;12.2;9.549999;;;;;;;4.39;98.0625;94254.14;;;;
2019/11/09 00:27:59;;;;;;;12.2;9.549999;;;;;;;4.39;98.0625;94254.14;;;;
2019/11/09 00:29:00;;;;;;;12.2;9.549999;;;;;;;4.39;98.0625;94254.14;;;;
2019/11/09 00:30:02;;;;;;;12.2;9.549999;;;;;;;4.39;98.0625;94254.14;;;;
2019/11/09 00:31:04;;;;;;;12.2;9.549999;;;;;;;4.39;98.0625;94254.14;;;;
2019/11/09 00:32:05;;;;;;;12.2;9.549999;;;;;;;4.39;98.0625;94254.14;;;;
2019/11/09 00:33:06;;;;;;;12.2;9.549999;;;;;;;4.39;98.0625;94254.14;;;;
2019/11/09 00:34:07;;;;;;;12.2;9.549999;;;;;;;4.39;98.0625;94254.14;;;;
2019/11/09 00:35:08;;;;;;;12.2;9.549999;;;;;;;4.39;98.0625;94254.14;;;;
2019/11/09 00:36:10;;;;;;;10.9;8.700001;;;;;;;4.52;98.08398;94285.11;;;;
2019/11/09 00:37:12;;;;;;;10.9;8.700001;;;;;;;4.52;98.08398;94285.11;;;;
2019/11/09 00:38:13;;;;;;;10.9;8.700001;;;;;;;4.52;98.08398;94285.11;;;;
2019/11/09 00:39:14;;;;;;;10.9;8.700001;;;;;;;4.52;98.08398;94285.11;;;;
2019/11/09 00:40:15;;;;;;;10.9;8.700001;;;;;;;4.52;98.08398;94285.11;;;;
2019/11/09 00:41:16;;;;;;;10.9;8.700001;;;;;;;4.52;98.08398;94285.11;;;;
2019/11/09 00:42:17;;;;;;;10.9;8.700001;;;;;;;4.52;98.08398;94285.11;;;;
2019/11/09 00:43:18;;;;;;;10.9;8.700001;;;;;;;4.52;98.08398;94285.11;;;;
2019/11/09 00:44:19;;;;;;;10.9;8.700001;;;;;;;4.52;98.08398;94285.11;;;;
2019/11/09 00:45:20;;;;;;;10.9;8.700001;;;;;;;4.52;98.08398;94285.11;;;;
2019/11/09 00:46:21;;;;;;;9.45;7.5;;;;;;;4.58;97.9082;94292.25;;;;
2019/11/09 00:47:23;;;;;;;9.45;7.5;;;;;;;4.58;97.9082;94292.25;;;;
2019/11/09 00:48:24;;;;;;;9.45;7.5;;;;;;;4.58;97.9082;94292.25;;;;
2019/11/09 00:49:25;;;;;;;9.45;7.5;;;;;;;4.58;97.9082;94292.25;;;;
2019/11/09 00:50:26;;;;;;;9.45;7.5;;;;;;;4.58;97.9082;94292.25;;;;
2019/11/09 00:51:27;;;;;;;9.45;7.5;;;;;;;4.58;97.9082;94292.25;;;;
2019/11/09 00:52:28;;;;;;;9.45;7.5;;;;;;;4.58;97.9082;94292.25;;;;
2019/11/09 00:53:29;;;;;;;9.45;7.5;;;;;;;4.58;97.9082;94292.25;;;;
2019/11/09 00:54:30;;;;;;;9.45;7.5;;;;;;;4.58;97.9082;94292.25;;;;
2019/11/09 00:55:31;;;;;;;9.45;7.5;;;;;;;4.58;97.9082;94292.25;;;;
2019/11/09 00:56:33;;;;;;;9.749999;7.9;;;;;;;4.7;97.92578;94300.22;;;;
2019/11/09 00:57:34;;;;;;;9.749999;7.9;;;;;;;4.7;97.92578;94300.22;;;;
2019/11/09 00:58:35;;;;;;;9.749999;7.9;;;;;;;4.7;97.92578;94300.22;;;;
2019/11/09 00:59:36;;;;;;;9.749999;7.9;;;;;;;4.7;97.92578;94300.22;;;;
2019/11/09 01:00:37;;;;;;;9.749999;7.9;;;;;;;4.7;97.92578;94300.22;;;;
2019/11/09 01:01:38;;;;;;;9.749999;7.9;;;;;;;4.7;97.92578;94300.22;;;;
2019/11/09 01:02:40;;;;;;;9.749999;7.9;;;;;;;4.7;97.92578;94300.22;;;;
2019/11/09 01:03:41;;;;;;;9.749999;7.9;;;;;;;4.7;97.92578;94300.22;;;;
2019/11/09 01:04:42;;;;;;;9.749999;7.9;;;;;;;4.7;97.92578;94300.22;;;;
2019/11/09 01:05:43;;;;;;;9.749999;7.9;;;;;;;4.7;97.92578;94300.22;;;;
2019/11/09 01:06:44;;;;;;;9.749999;7.9;;;;;;;4.7;97.92578;94300.22;;;;
2019/11/09 01:07:45;;;;;;;10.05;8.15;;;;;;;4.73;97.71973;94304.32;;;;
2019/11/09 01:08:46;;;;;;;10.05;8.15;;;;;;;4.73;97.71973;94304.32;;;;
2019/11/09 01:09:48;;;;;;;10.05;8.15;;;;;;;4.73;97.71973;94304.32;;;;
2019/11/09 01:10:49;;;;;;;10.05;8.15;;;;;;;4.73;97.71973;94304.32;;;;
2019/11/09 01:11:50;;;;;;;10.05;8.15;;;;;;;4.73;97.71973;94304.32;;;;
2019/11/09 01:12:52;;;;;;;10.05;8.15;;;;;;;4.73;97.71973;94304.32;;;;
2019/11/09 01:13:53;;;;;;;10.05;8.15;;;;;;;4.73;97.71973;94304.32;;;;
2019/11/09 01:14:54;;;;;;;10.05;8.15;;;;;;;4.73;97.71973;94304.32;;;;
2019/11/09 01:15:55;;;;;;;10.05;8.15;;;;;;;4.73;97.71973;94304.32;;;;
2019/11/09 01:17:08;;;;;;;10.05;8.15;;;;;;;4.73;97.71973;94304.32;;;;
2019/11/09 01:18:09;;;;;;;11.5;8.600001;;;;;;;4.81;97.78125;94306.67;;;;
2019/11/09 01:19:11;;;;;;;11.5;8.600001;;;;;;;4.81;97.78125;94306.67;;;;
2019/11/09 01:20:12;;;;;;;11.5;8.600001;;;;;;;4.81;97.78125;94306.67;;;;
2019/11/09 01:21:13;;;;;;;11.5;8.600001;;;;;;;4.81;97.78125;94306.67;;;;
2019/11/09 01:22:14;;;;;;;11.5;8.600001;;;;;;;4.81;97.78125;94306.67;;;;
2019/11/09 01:23:15;;;;;;;11.5;8.600001;;;;;;;4.81;97.78125;94306.67;;;;
2019/11/09 01:24:16;;;;;;;11.5;8.600001;;;;;;;4.81;97.78125;94306.67;;;;
2019/11/09 01:25:17;;;;;;;11.5;8.600001;;;;;;;4.81;97.78125;94306.67;;;;
2019/11/09 01:26:19;;;;;;;11.5;8.600001;;;;;;;4.81;97.78125;94306.67;;;;
2019/11/09 01:27:21;;;;;;;11.5;8.600001;;;;;;;4.81;97.78125;94306.67;;;;
2019/11/09 01:28:22;;;;;;;12.45;9.749999;;;;;;;4.82;97.60547;94298.13;;;;
2019/11/09 01:29:23;;;;;;;12.45;9.749999;;;;;;;4.82;97.60547;94298.13;;;;
2019/11/09 01:30:24;;;;;;;12.45;9.749999;;;;;;;4.82;97.60547;94298.13;;;;
2019/11/09 01:31:25;;;;;;;12.45;9.749999;;;;;;;4.82;97.60547;94298.13;;;;
2019/11/09 01:32:27;;;;;;;12.45;9.749999;;;;;;;4.82;97.60547;94298.13;;;;
2019/11/09 01:33:59;;;;;;;12.45;9.749999;;;;;;;4.82;97.60547;94298.13;;;;
2019/11/09 01:35:00;;;;;;;12.45;9.749999;;;;;;;4.82;97.60547;94298.13;;;;
2019/11/09 01:36:03;;;;;;;12.45;9.749999;;;;;;;4.82;97.60547;94298.13;;;;
2019/11/09 01:37:05;;;;;;;12.45;9.749999;;;;;;;4.82;97.60547;94298.13;;;;
2019/11/09 01:38:06;;;;;;;12.45;9.749999;;;;;;;4.82;97.60547;94298.13;;;;
2019/11/09 01:39:07;;;;;;;13.65;10.35;;;;;;;4.87;97.57422;94296.94;;;;
2019/11/09 01:40:09;;;;;;;13.65;10.35;;;;;;;4.87;97.57422;94296.94;;;;
2019/11/09 01:41:10;;;;;;;13.65;10.35;;;;;;;4.87;97.57422;94296.94;;;;
2019/11/09 01:42:12;;;;;;;13.65;10.35;;;;;;;4.87;97.57422;94296.94;;;;
2019/11/09 01:43:13;;;;;;;13.65;10.35;;;;;;;4.87;97.57422;94296.94;;;;
2019/11/09 01:44:14;;;;;;;13.65;10.35;;;;;;;4.87;97.57422;94296.94;;;;
2019/11/09 01:45:18;;;;;;;13.65;10.35;;;;;;;4.87;97.57422;94296.94;;;;
2019/11/09 01:46:19;;;;;;;13.65;10.35;;;;;;;4.87;97.57422;94296.94;;;;
2019/11/09 01:47:21;;;;;;;13.65;10.35;;;;;;;4.87;97.57422;94296.94;;;;
2019/11/09 01:48:22;;;;;;;13.65;10.35;;;;;;;4.87;97.57422;94296.94;;;;
2019/11/09 01:49:23;;;;;;;13.65;10.35;;;;;;;4.87;97.57422;94296.94;;;;
2019/11/09 01:50:24;;;;;;;13.65;10.35;;;;;;;4.87;97.57422;94296.94;;;;
2019/11/09 01:51:25;;;;;;;13.65;10.35;;;;;;;4.87;97.57422;94296.94;;;;
2019/11/09 01:52:27;;;;;;;13.65;10.35;;;;;;;4.87;97.57422;94296.94;;;;
2019/11/09 01:53:28;;;;;;;13.65;10.35;;;;;;;4.87;97.57422;94296.94;;;;
2019/11/09 01:54:29;;;;;;;13.65;10.35;;;;;;;4.87;97.57422;94296.94;;;;
2019/11/09 01:55:30;;;;;;;13.65;10.35;;;;;;;4.87;97.57422;94296.94;;;;
2019/11/09 01:56:31;;;;;;;13.65;10.35;;;;;;;4.87;97.57422;94296.94;;;;
2019/11/09 01:57:32;;;;;;;13.65;10.35;;;;;;;4.87;97.57422;94296.94;;;;
2019/11/09 01:58:33;;;;;;;13.65;10.35;;;;;;;4.87;97.57422;94296.94;;;;
2019/11/09 01:59:34;;;;;;;13.65;10.35;;;;;;;4.87;97.57422;94296.94;;;;
2019/11/09 02:00:35;;;;;;;15.25;11.55;;;;;;;4.86;97.23828;94288.5;;;;
2019/11/09 02:01:36;;;;;;;15.25;11.55;;;;;;;4.86;97.23828;94288.5;;;;
2019/11/09 02:02:41;;;;;;;15.25;11.55;;;;;;;4.86;97.23828;94288.5;;;;
2019/11/09 02:03:42;;;;;;;15.25;11.55;;;;;;;4.86;97.23828;94288.5;;;;
2019/11/09 02:04:43;;;;;;;15.25;11.55;;;;;;;4.86;97.23828;94288.5;;;;
2019/11/09 02:05:45;;;;;;;15.25;11.55;;;;;;;4.86;97.23828;94288.5;;;;
2019/11/09 02:06:46;;;;;;;15.25;11.55;;;;;;;4.86;97.23828;94288.5;;;;
2019/11/09 02:07:47;;;;;;;15.25;11.55;;;;;;;4.86;97.23828;94288.5;;;;
2019/11/09 02:08:48;;;;;;;15.25;11.55;;;;;;;4.86;97.23828;94288.5;;;;
2019/11/09 02:09:49;;;;;;;15.25;11.55;;;;;;;4.86;97.23828;94288.5;;;;
2019/11/09 02:10:50;;;;;;;15.25;11.55;;;;;;;4.86;97.23828;94288.5;;;;
2019/11/09 02:11:51;;;;;;;12.9;10.95;;;;;;;4.73;97.28027;94304.32;;;;
2019/11/09 02:12:52;;;;;;;12.9;10.95;;;;;;;4.73;97.28027;94304.32;;;;
2019/11/09 02:13:54;;;;;;;12.9;10.95;;;;;;;4.73;97.28027;94304.32;;;;
2019/11/09 02:14:55;;;;;;;12.9;10.95;;;;;;;4.73;97.28027;94304.32;;;;
2019/11/09 02:15:56;;;;;;;12.9;10.95;;;;;;;4.73;97.28027;94304.32;;;;
2019/11/09 02:16:57;;;;;;;12.9;10.95;;;;;;;4.73;97.28027;94304.32;;;;
2019/11/09 02:17:58;;;;;;;12.9;10.95;;;;;;;4.73;97.28027;94304.32;;;;
2019/11/09 02:18:59;;;;;;;12.9;10.95;;;;;;;4.73;97.28027;94304.32;;;;
2019/11/09 02:20:00;;;;;;;12.9;10.95;;;;;;;4.73;97.28027;94304.32;;;;
2019/11/09 02:21:02;;;;;;;12.9;10.95;;;;;;;4.73;97.28027;94304.32;;;;
2019/11/09 02:22:03;;;;;;;12.9;9.950001;;;;;;;4.68;97.38477;94298.38;;;;
2019/11/09 02:23:04;;;;;;;12.9;9.950001;;;;;;;4.68;97.38477;94298.38;;;;
2019/11/09 02:24:05;;;;;;;12.9;9.950001;;;;;;;4.68;97.38477;94298.38;;;;
2019/11/09 02:25:07;;;;;;;12.9;9.950001;;;;;;;4.68;97.38477;94298.38;;;;
2019/11/09 02:26:08;;;;;;;12.9;9.950001;;;;;;;4.68;97.38477;94298.38;;;;
2019/11/09 02:27:09;;;;;;;12.9;9.950001;;;;;;;4.68;97.38477;94298.38;;;;
2019/11/09 02:28:10;;;;;;;12.9;9.950001;;;;;;;4.68;97.38477;94298.38;;;;
2019/11/09 02:29:11;;;;;;;12.9;9.950001;;;;;;;4.68;97.38477;94298.38;;;;
2019/11/09 02:30:12;;;;;;;12.9;9.950001;;;;;;;4.68;97.38477;94298.38;;;;
2019/11/09 02:31:14;;;;;;;12.9;9.950001;;;;;;;4.68;97.38477;94298.38;;;;
2019/11/09 02:32:15;;;;;;;12.9;9.950001;;;;;;;4.68;97.38477;94298.38;;;;
2019/11/09 02:33:16;;;;;;;11.75;9.7;;;;;;;4.55;97.28125;94307.37;;;;
2019/11/09 02:34:17;;;;;;;11.75;9.7;;;;;;;4.55;97.28125;94307.37;;;;
2019/11/09 02:35:24;;;;;;;11.75;9.7;;;;;;;4.55;97.28125;94307.37;;;;
2019/11/09 02:36:31;;;;;;;11.75;9.7;;;;;;;4.55;97.28125;94307.37;;;;
2019/11/09 02:37:32;;;;;;;11.75;9.7;;;;;;;4.55;97.28125;94307.37;;;;
2019/11/09 02:38:33;;;;;;;11.75;9.7;;;;;;;4.55;97.28125;94307.37;;;;
2019/11/09 02:39:35;;;;;;;11.75;9.7;;;;;;;4.55;97.28125;94307.37;;;;
2019/11/09 02:40:36;;;;;;;11.75;9.7;;;;;;;4.55;97.28125;94307.37;;;;
2019/11/09 02:41:37;;;;;;;11.75;9.7;;;;;;;4.55;97.28125;94307.37;;;;
2019/11/09 02:42:38;;;;;;;11.75;9.7;;;;;;;4.55;97.28125;94307.37;;;;
2019/11/09 02:43:39;;;;;;;11.25;9.2;;;;;;;4.43;97.23535;94318.52;;;;
2019/11/09 02:44:40;;;;;;;11.25;9.2;;;;;;;4.43;97.23535;94318.52;;;;
2019/11/09 02:45:41;;;;;;;11.25;9.2;;;;;;;4.43;97.23535;94318.52;;;;
2019/11/09 02:46:43;;;;;;;11.25;9.2;;;;;;;4.43;97.23535;94318.52;;;;
2019/11/09 02:47:44;;;;;;;11.25;9.2;;;;;;;4.43;97.23535;94318.52;;;;
2019/11/09 02:48:45;;;;;;;11.25;9.2;;;;;;;4.43;97.23535;94318.52;;;;
2019/11/09 02:49:46;;;;;;;11.25;9.2;;;;;;;4.43;97.23535;94318.52;;;;
2019/11/09 02:50:47;;;;;;;11.25;9.2;;;;;;;4.43;97.23535;94318.52;;;;
2019/11/09 02:51:48;;;;;;;11.25;9.2;;;;;;;4.43;97.23535;94318.52;;;;
2019/11/09 02:52:50;;;;;;;11.25;9.2;;;;;;;4.43;97.23535;94318.52;;;;
2019/11/09 02:53:51;;;;;;;10.85;8.700001;;;;;;;4.19;97.26367;94314.43;;;;
2019/11/09 02:54:52;;;;;;;10.85;8.700001;;;;;;;4.19;97.26367;94314.43;;;;
2019/11/09 02:55:53;;;;;;;10.85;8.700001;;;;;;;4.19;97.26367;94314.43;;;;
2019/11/09 02:56:55;;;;;;;10.85;8.700001;;;;;;;4.19;97.26367;94314.43;;;;
2019/11/09 02:57:56;;;;;;;10.85;8.700001;;;;;;;4.19;97.26367;94314.43;;;;
2019/11/09 02:58:57;;;;;;;10.85;8.700001;;;;;;;4.19;97.26367;94314.43;;;;
2019/11/09 02:59:58;;;;;;;10.85;8.700001;;;;;;;4.19;97.26367;94314.43;;;;
2019/11/09 03:01:00;;;;;;;10.85;8.700001;;;;;;;4.19;97.26367;94314.43;;;;
2019/11/09 03:02:01;;;;;;;10.85;8.700001;;;;;;;4.19;97.26367;94314.43;;;;
2019/11/09 03:03:02;;;;;;;10.85;8.700001;;;;;;;4.19;97.26367;94314.43;;;;
2019/11/09 03:04:04;;;;;;;10.85;8.700001;;;;;;;4.19;97.26367;94314.43;;;;
2019/11/09 03:05:05;;;;;;;9.650003;8.1;;;;;;;4.14;97.50488;94308.53;;;;
2019/11/09 03:06:06;;;;;;;9.650003;8.1;;;;;;;4.14;97.50488;94308.53;;;;
2019/11/09 03:07:07;;;;;;;9.650003;8.1;;;;;;;4.14;97.50488;94308.53;;;;
2019/11/09 03:08:08;;;;;;;9.650003;8.1;;;;;;;4.14;97.50488;94308.53;;;;
2019/11/09 03:09:10;;;;;;;9.650003;8.1;;;;;;;4.14;97.50488;94308.53;;;;
2019/11/09 03:10:11;;;;;;;9.650003;8.1;;;;;;;4.14;97.50488;94308.53;;;;
2019/11/09 03:11:12;;;;;;;9.650003;8.1;;;;;;;4.14;97.50488;94308.53;;;;
2019/11/09 03:12:35;;;;;;;9.650003;8.1;;;;;;;4.14;97.50488;94308.53;;;;
2019/11/09 03:13:42;;;;;;;9.650003;8.1;;;;;;;4.14;97.50488;94308.53;;;;
2019/11/09 03:19:53;;;;;;;11.15;9.199999;;;;;;;4.11;97.40137;94315.25;;;;
2019/11/09 03:20:54;;;;;;;11.15;9.199999;;;;;;;4.11;97.40137;94315.25;;;;
2019/11/09 03:21:55;;;;;;;11.15;9.199999;;;;;;;4.11;97.40137;94315.25;;;;
2019/11/09 03:22:56;;;;;;;11.15;9.199999;;;;;;;4.11;97.40137;94315.25;;;;
2019/11/09 03:23:57;;;;;;;11.15;9.199999;;;;;;;4.11;97.40137;94315.25;;;;
2019/11/09 03:24:58;;;;;;;11.15;9.199999;;;;;;;4.11;97.40137;94315.25;;;;
2019/11/09 03:26:00;;;;;;;8.449999;7.35;;;;;;;4.13;97.42871;94324.69;;;;
2019/11/09 03:27:01;;;;;;;8.449999;7.35;;;;;;;4.13;97.42871;94324.69;;;;
2019/11/09 03:28:02;;;;;;;8.449999;7.35;;;;;;;4.13;97.42871;94324.69;;;;
2019/11/09 03:29:03;;;;;;;8.449999;7.35;;;;;;;4.13;97.42871;94324.69;;;;
2019/11/09 03:30:04;;;;;;;8.449999;7.35;;;;;;;4.13;97.42871;94324.69;;;;
2019/11/09 03:31:09;;;;;;;8.449999;7.35;;;;;;;4.13;97.42871;94324.69;;;;
2019/11/09 03:32:10;;;;;;;8.449999;7.35;;;;;;;4.13;97.42871;94324.69;;;;
2019/11/09 03:33:11;;;;;;;8.449999;7.35;;;;;;;4.13;97.42871;94324.69;;;;
2019/11/09 03:34:12;;;;;;;8.449999;7.35;;;;;;;4.13;97.42871;94324.69;;;;
2019/11/09 03:35:13;;;;;;;8.449999;7.35;;;;;;;4.13;97.42871;94324.69;;;;
2019/11/09 03:36:14;;;;;;;8.899999;7.599999;;;;;;;4.03;97.19629;94336.38;;;;
2019/11/09 03:37:15;;;;;;;8.899999;7.599999;;;;;;;4.03;97.19629;94336.38;;;;
2019/11/09 03:38:17;;;;;;;8.899999;7.599999;;;;;;;4.03;97.19629;94336.38;;;;
2019/11/09 03:39:18;;;;;;;8.899999;7.599999;;;;;;;4.03;97.19629;94336.38;;;;
2019/11/09 03:40:19;;;;;;;8.899999;7.599999;;;;;;;4.03;97.19629;94336.38;;;;
2019/11/09 03:41:24;;;;;;;8.899999;7.599999;;;;;;;4.03;97.19629;94336.38;;;;
2019/11/09 03:42:26;;;;;;;8.899999;7.599999;;;;;;;4.03;97.19629;94336.38;;;;
2019/11/09 03:43:28;;;;;;;8.899999;7.599999;;;;;;;4.03;97.19629;94336.38;;;;
2019/11/09 03:44:30;;;;;;;8.899999;7.599999;;;;;;;4.03;97.19629;94336.38;;;;
2019/11/09 03:45:33;;;;;;;8.899999;7.599999;;;;;;;4.03;97.19629;94336.38;;;;
2019/11/09 03:46:35;;;;;;;7.45;6.65;;;;;;;4.01;97.35156;94380.25;;;;
2019/11/09 03:47:54;;;;;;;7.45;6.65;;;;;;;4.01;97.35156;94380.25;;;;
2019/11/09 03:49:05;;;;;;;7.45;6.65;;;;;;;4.01;97.35156;94380.25;;;;
2019/11/09 03:50:21;;;;;;;7.45;6.65;;;;;;;4.01;97.35156;94380.25;;;;
2019/11/09 03:51:26;;;;;;;7.45;6.65;;;;;;;4.01;97.35156;94380.25;;;;
2019/11/09 03:52:34;;;;;;;7.45;6.65;;;;;;;4.01;97.35156;94380.25;;;;
2019/11/09 03:53:45;;;;;;;7.45;6.65;;;;;;;4.01;97.35156;94380.25;;;;
2019/11/09 03:55:00;;;;;;;7.45;6.65;;;;;;;4.01;97.35156;94380.25;;;;
2019/11/09 03:56:04;;;;;;;7.45;6.65;;;;;;;4.01;97.35156;94380.25;;;;
2019/11/09 03:57:20;;;;;;;7.45;6.7;;;;;;;3.94;97.12305;94394.72;;;;
2019/11/09 03:58:21;;;;;;;7.45;6.7;;;;;;;3.94;97.12305;94394.72;;;;
2019/11/09 03:59:54;;;;;;;7.45;6.7;;;;;;;3.94;97.12305;94394.72;;;;
2019/11/09 04:01:07;;;;;;;7.45;6.7;;;;;;;3.94;97.12305;94394.72;;;;
2019/11/09 04:02:08;;;;;;;7.45;6.7;;;;;;;3.94;97.12305;94394.72;;;;
2019/11/09 04:03:09;;;;;;;7.45;6.7;;;;;;;3.94;97.12305;94394.72;;;;
2019/11/09 04:04:22;;;;;;;7.45;6.7;;;;;;;3.94;97.12305;94394.72;;;;
2019/11/09 04:05:24;;;;;;;7.45;6.7;;;;;;;3.94;97.12305;94394.72;;;;
2019/11/09 04:06:25;;;;;;;7.45;6.7;;;;;;;3.94;97.12305;94394.72;;;;
2019/11/09 04:07:27;;;;;;;7.45;6.7;;;;;;;3.94;97.12305;94394.72;;;;
2019/11/09 04:08:28;;;;;;;8.45;7.55;;;;;;;3.97;97.24609;94389.34;;;;
2019/11/09 04:09:30;;;;;;;8.45;7.55;;;;;;;3.97;97.24609;94389.34;;;;
2019/11/09 04:10:31;;;;;;;8.45;7.55;;;;;;;3.97;97.24609;94389.34;;;;
2019/11/09 04:11:32;;;;;;;8.45;7.55;;;;;;;3.97;97.24609;94389.34;;;;
2019/11/09 04:12:33;;;;;;;8.45;7.55;;;;;;;3.97;97.24609;94389.34;;;;
2019/11/09 04:13:34;;;;;;;8.45;7.55;;;;;;;3.97;97.24609;94389.34;;;;
2019/11/09 04:14:36;;;;;;;8.45;7.55;;;;;;;3.97;97.24609;94389.34;;;;
2019/11/09 04:15:37;;;;;;;8.45;7.55;;;;;;;3.97;97.24609;94389.34;;;;
2019/11/09 04:16:38;;;;;;;8.45;7.55;;;;;;;3.97;97.24609;94389.34;;;;
2019/11/09 04:17:39;;;;;;;8.45;7.55;;;;;;;3.97;97.24609;94389.34;;;;
2019/11/09 04:18:40;;;;;;;7.7;6.9;;;;;;;3.95;97.24023;94405.27;;;;
2019/11/09 04:19:42;;;;;;;7.7;6.9;;;;;;;3.95;97.24023;94405.27;;;;
2019/11/09 04:20:43;;;;;;;7.7;6.9;;;;;;;3.95;97.24023;94405.27;;;;
2019/11/09 04:21:44;;;;;;;7.7;6.9;;;;;;;3.95;97.24023;94405.27;;;;
2019/11/09 04:22:45;;;;;;;7.7;6.9;;;;;;;3.95;97.24023;94405.27;;;;
2019/11/09 04:23:46;;;;;;;7.7;6.9;;;;;;;3.95;97.24023;94405.27;;;;
2019/11/09 04:24:47;;;;;;;7.7;6.9;;;;;;;3.95;97.24023;94405.27;;;;
2019/11/09 04:25:48;;;;;;;7.7;6.9;;;;;;;3.95;97.24023;94405.27;;;;
2019/11/09 04:26:49;;;;;;;7.7;6.9;;;;;;;3.95;97.24023;94405.27;;;;
2019/11/09 04:27:50;;;;;;;7.7;6.9;;;;;;;3.95;97.24023;94405.27;;;;
2019/11/09 04:28:52;;;;;;;7.7;6.9;;;;;;;3.95;97.24023;94405.27;;;;
2019/11/09 04:29:53;;;;;;;8.049999;7.000001;;;;;;;4;97.33691;94420.11;;;;
2019/11/09 04:30:54;;;;;;;8.049999;7.000001;;;;;;;4;97.33691;94420.11;;;;
2019/11/09 04:31:58;;;;;;;8.049999;7.000001;;;;;;;4;97.33691;94420.11;;;;
2019/11/09 04:33:10;;;;;;;8.049999;7.000001;;;;;;;4;97.33691;94420.11;;;;
2019/11/09 04:34:12;;;;;;;8.049999;7.000001;;;;;;;4;97.33691;94420.11;;;;
2019/11/09 04:35:15;;;;;;;8.049999;7.000001;;;;;;;4;97.33691;94420.11;;;;
2019/11/09 04:36:16;;;;;;;8.049999;7.000001;;;;;;;4;97.33691;94420.11;;;;
2019/11/09 04:37:24;;;;;;;8.049999;7.000001;;;;;;;4;97.33691;94420.11;;;;
2019/11/09 04:38:36;;;;;;;8.049999;7.000001;;;;;;;4;97.33691;94420.11;;;;
2019/11/09 04:39:40;;;;;;;9.050001;7.8;;;;;;;4.01;97.22168;94412.42;;;;
2019/11/09 04:40:42;;;;;;;9.050001;7.8;;;;;;;4.01;97.22168;94412.42;;;;
2019/11/09 04:41:49;;;;;;;9.050001;7.8;;;;;;;4.01;97.22168;94412.42;;;;
2019/11/09 04:42:53;;;;;;;9.050001;7.8;;;;;;;4.01;97.22168;94412.42;;;;
2019/11/09 04:43:58;;;;;;;9.050001;7.8;;;;;;;4.01;97.22168;94412.42;;;;
2019/11/09 04:45:02;;;;;;;9.050001;7.8;;;;;;;4.01;97.22168;94412.42;;;;
2019/11/09 04:46:08;;;;;;;9.050001;7.8;;;;;;;4.01;97.22168;94412.42;;;;
2019/11/09 04:47:10;;;;;;;9.050001;7.8;;;;;;;4.01;97.22168;94412.42;;;;
2019/11/09 04:48:11;;;;;;;9.050001;7.8;;;;;;;4.01;97.22168;94412.42;;;;
2019/11/09 04:49:13;;;;;;;9.050001;7.8;;;;;;;4.01;97.22168;94412.42;;;;
2019/11/09 04:50:14;;;;;;;9.050001;7.8;;;;;;;4.01;97.22168;94412.42;;;;
2019/11/09 04:51:16;;;;;;;8;7.200001;;;;;;;4.09;97.29492;94436.08;;;;
2019/11/09 04:52:17;;;;;;;8;7.200001;;;;;;;4.09;97.29492;94436.08;;;;
2019/11/09 04:53:18;;;;;;;8;7.200001;;;;;;;4.09;97.29492;94436.08;;;;
2019/11/09 04:54:19;;;;;;;8;7.200001;;;;;;;4.09;97.29492;94436.08;;;;
2019/11/09 04:55:20;;;;;;;8;7.200001;;;;;;;4.09;97.29492;94436.08;;;;
2019/11/09 04:56:21;;;;;;;8;7.200001;;;;;;;4.09;97.29492;94436.08;;;;
2019/11/09 04:57:23;;;;;;;8;7.200001;;;;;;;4.09;97.29492;94436.08;;;;
2019/11/09 04:58:25;;;;;;;8;7.200001;;;;;;;4.09;97.29492;94436.08;;;;
2019/11/09 04:59:26;;;;;;;8;7.200001;;;;;;;4.09;97.29492;94436.08;;;;
2019/11/09 05:00:27;;;;;;;8;7.200001;;;;;;;4.09;97.29492;94436.08;;;;
2019/11/09 05:01:28;;;;;;;7.9;7.100001;;;;;;;4.09;97.26367;94457.45;;;;
2019/11/09 05:02:29;;;;;;;7.9;7.100001;;;;;;;4.09;97.26367;94457.45;;;;
2019/11/09 05:03:30;;;;;;;7.9;7.100001;;;;;;;4.09;97.26367;94457.45;;;;
2019/11/09 05:04:31;;;;;;;7.9;7.100001;;;;;;;4.09;97.26367;94457.45;;;;
2019/11/09 05:05:32;;;;;;;7.9;7.100001;;;;;;;4.09;97.26367;94457.45;;;;
2019/11/09 05:06:34;;;;;;;7.9;7.100001;;;;;;;4.09;97.26367;94457.45;;;;
2019/11/09 05:07:36;;;;;;;7.9;7.100001;;;;;;;4.09;97.26367;94457.45;;;;
2019/11/09 05:08:37;;;;;;;7.9;7.100001;;;;;;;4.09;97.26367;94457.45;;;;
2019/11/09 05:09:39;;;;;;;7.9;7.100001;;;;;;;4.09;97.26367;94457.45;;;;
2019/11/09 05:10:41;;;;;;;7.9;7.100001;;;;;;;4.09;97.26367;94457.45;;;;
2019/11/09 05:11:42;;;;;;;7.8;6.7;;;;;;;4.16;97.4248;94472.91;;;;
2019/11/09 05:12:43;;;;;;;7.8;6.7;;;;;;;4.16;97.4248;94472.91;;;;
2019/11/09 05:13:44;;;;;;;7.8;6.7;;;;;;;4.16;97.4248;94472.91;;;;
2019/11/09 05:14:45;;;;;;;7.8;6.7;;;;;;;4.16;97.4248;94472.91;;;;
2019/11/09 05:15:50;;;;;;;7.8;6.7;;;;;;;4.16;97.4248;94472.91;;;;
2019/11/09 05:16:51;;;;;;;7.8;6.7;;;;;;;4.16;97.4248;94472.91;;;;
2019/11/09 05:17:52;;;;;;;7.8;6.7;;;;;;;4.16;97.4248;94472.91;;;;
2019/11/09 05:18:53;;;;;;;7.8;6.7;;;;;;;4.16;97.4248;94472.91;;;;
2019/11/09 05:19:54;;;;;;;7.8;6.7;;;;;;;4.16;97.4248;94472.91;;;;
2019/11/09 05:20:55;;;;;;;7.8;6.7;;;;;;;4.16;97.4248;94472.91;;;;
2019/11/09 05:21:56;;;;;;;7.8;6.7;;;;;;;4.16;97.4248;94472.91;;;;
2019/11/09 05:22:58;;;;;;;6.749999;6.050001;;;;;;;4.17;97.35352;94467.47;;;;
2019/11/09 05:23:59;;;;;;;6.749999;6.050001;;;;;;;4.17;97.35352;94467.47;;;;
2019/11/09 05:25:00;;;;;;;6.749999;6.050001;;;;;;;4.17;97.35352;94467.47;;;;
2019/11/09 05:26:01;;;;;;;6.749999;6.050001;;;;;;;4.17;97.35352;94467.47;;;;
2019/11/09 05:27:02;;;;;;;6.749999;6.050001;;;;;;;4.17;97.35352;94467.47;;;;
2019/11/09 05:28:03;;;;;;;6.749999;6.050001;;;;;;;4.17;97.35352;94467.47;;;;
2019/11/09 05:29:05;;;;;;;6.749999;6.050001;;;;;;;4.17;97.35352;94467.47;;;;
2019/11/09 05:30:06;;;;;;;6.749999;6.050001;;;;;;;4.17;97.35352;94467.47;;;;
2019/11/09 05:31:08;;;;;;;6.749999;6.050001;;;;;;;4.17;97.35352;94467.47;;;;
2019/11/09 05:32:09;;;;;;;6.749999;6.050001;;;;;;;4.17;97.35352;94467.47;;;;
2019/11/09 05:33:11;;;;;;;6.5;5.8;;;;;;;4.23;97.44238;94487.03;;;;
2019/11/09 05:34:13;;;;;;;6.5;5.8;;;;;;;4.23;97.44238;94487.03;;;;
2019/11/09 05:35:14;;;;;;;6.5;5.8;;;;;;;4.23;97.44238;94487.03;;;;
2019/11/09 05:36:15;;;;;;;6.5;5.8;;;;;;;4.23;97.44238;94487.03;;;;
2019/11/09 05:37:16;;;;;;;6.5;5.8;;;;;;;4.23;97.44238;94487.03;;;;
2019/11/09 05:38:17;;;;;;;6.5;5.8;;;;;;;4.23;97.44238;94487.03;;;;
2019/11/09 05:39:18;;;;;;;6.5;5.8;;;;;;;4.23;97.44238;94487.03;;;;
2019/11/09 05:40:19;;;;;;;6.5;5.8;;;;;;;4.23;97.44238;94487.03;;;;
2019/11/09 05:41:21;;;;;;;6.5;5.8;;;;;;;4.23;97.44238;94487.03;;;;
2019/11/09 05:42:22;;;;;;;6.5;5.8;;;;;;;4.23;97.44238;94487.03;;;;
2019/11/09 05:43:23;;;;;;;6.299999;5.5;;;;;;;4.23;97.35645;94510.25;;;;
2019/11/09 05:44:24;;;;;;;6.299999;5.5;;;;;;;4.23;97.35645;94510.25;;;;
2019/11/09 05:45:25;;;;;;;6.299999;5.5;;;;;;;4.23;97.35645;94510.25;;;;
2019/11/09 05:46:26;;;;;;;6.299999;5.5;;;;;;;4.23;97.35645;94510.25;;;;
2019/11/09 05:47:28;;;;;;;6.299999;5.5;;;;;;;4.23;97.35645;94510.25;;;;
2019/11/09 05:48:29;;;;;;;6.299999;5.5;;;;;;;4.23;97.35645;94510.25;;;;
2019/11/09 05:49:30;;;;;;;6.299999;5.5;;;;;;;4.23;97.35645;94510.25;;;;
2019/11/09 05:50:31;;;;;;;6.299999;5.5;;;;;;;4.23;97.35645;94510.25;;;;